Elsinore, UT (84724)

2:58 PM MDT on June 22, 2017 (GMT -0600)
Putter Butt Farms | | Change Station
Active Advisory: Fire Weather Warning

Elev 5322 ft 38.65 °N, 112.14 °W | Updated 18 seconds ago

Clear
Clear
90.7 °F
Feels Like 87 °F
N
10.0
Wind Variable Wind from WNW
Gusts 11.5 mph

Today
High -- | Low -- °F
--% Chance of Precip.
Yesterday
High -- | Low -- °F
Precip. -- in
Pressure 29.79 in
Visibility 10.0 miles
Clouds Clear
Heat Index 87 °F
Dew Point 37 °F
Humidity 15%
Rainfall 0.00 in
Snow Depth Not available.
6:04 AM 8:56 PM
Waning Crescent, 2% visible
METAR KMLF 222052Z AUTO 04013G21KT 10SM CLR 34/M04 A3003 RMK AO2 SLP086 T03441039 58011
Pressure 29.79 in
Visibility 10.0 miles
Clouds Clear
Heat Index 87 °F
Dew Point 37 °F
Humidity 15%
Rainfall 0.00 in
Snow Depth Not available.
6:04 AM 8:56 PM
Waning Crescent, 2% visible
METAR KMLF 222052Z AUTO 04013G21KT 10SM CLR 34/M04 A3003 RMK AO2 SLP086 T03441039 58011

Get Your Daily Forecast Email!

Thanks for signing up!

Be on the lookout for a verification email in your inbox.

You'll start receiving severe weather alerts in your inbox..

×

10-Day Weather Forecast

Almanac

Astronomy

Jun. 22, 2017 Rise Set
Actual Time
Civil Twilight
Nautical Twilight
Astronomical Twilight
Moon
Length of Visible Light
Length of Day
Tomorrow will be .
, % of the Moon is Illuminated

Today's Extremes

State Highs State Lows

Community

WunderPhotos

Category 6

Welcome to Category 6. This is the collective home for Weather Underground's featured writeups by Dr. Jeff Masters (right), Bob Henson (left), Chris Burt, and other regular contributors.

Nearby

Air Quality

  Air Quality AQ Index Pollutant
Not available.

Snow Depth

Station Depth Elevation

Earthquake Activity

City Distance Mag. Time & Date
Minimum magnitude displayed is 2.5.

Coastal Water Temperatures

Place Temperature

Stations

Nearby Weather Stations

Station Location Temp. Windchill Dew Point Humidity Wind Precip. Elev Updated Type
                   

Watches & Warnings

Fire Weather Warning
Issued: 9:07 AM MDT Jun. 22, 2017 – National Weather Service

... Red flag warning remains in effect from noon today to 10 PM
MDT this evening for wind and low relative humidity for fire
weather zones 488... 489 and 493 below 8000 feet...

* affected area... fire weather zone 488 Manti National Forest...
fire weather zone 489 San Rafael Swell and fire weather zone
493 central Utah mountains.

* Winds... west winds 15-25 mph with gusts to 35 mph.

* Relative humidity... 10-15 percent mountains, 6-8 percent
eastern valleys.

* Impacts... gusty winds and low humidities will combine to cause
critical fire weather conditions.

Precautionary/preparedness actions...

A red flag warning means that critical fire weather conditions
are either occurring now... or are imminent. A combination of
strong winds... low relative humidity... and warm temperatures can
contribute to extreme fire behavior.